Weather reports worldwide

Advertisment
Puerto Leitariegos, Spain (8052): temperature & dewpoint: 12.01.2018 07:00:00 - 18.01.2018 07:00:00 (CET)Puerto Leitariegos, Spain (8052): wind speed & gusts: 12.01.2018 07:00:00 - 18.01.2018 07:00:00 (CET)Puerto Leitariegos, Spain (8052): wind direction: 12.01.2018 07:00:00 - 18.01.2018 07:00:00 (CET)Puerto Leitariegos, Spain (8052): visibility: 12.01.2018 07:00:00 - 18.01.2018 07:00:00 (CET)Puerto Leitariegos, Spain (8052): sunshine duration: 12.01.2018 07:00:00 - 18.01.2018 07:00:00 (CET)Puerto Leitariegos, Spain (8052): precipitation: 12.01.2018 07:00:00 - 18.01.2018 07:00:00 (CET)
Date & Time tt [°C] td [°C] ff [km/h] ff [kn] fx [km/h] fx [kn] dd vv [km] sd [min] rr [mm]
18.01.2018 07:00:00 - - - - - - - - - -
18.01.2018 06:00:00 2,2 -2,5 4 2 15 8 NW 20 0 0,0
18.01.2018 05:00:00 2,6 -3,6 10 5 20 11 NW 20 0 0,0
18.01.2018 04:00:00 - - - - - - - - - -
18.01.2018 03:00:00 1,3 -6,0 2 1 5 3 NNW 20 0 0,0
18.01.2018 02:00:00 1,3 -8,2 4 2 8 5 SE 20 0 0,0
18.01.2018 01:00:00 1,2 -7,8 6 3 8 4 SSE 20 0 -
18.01.2018 00:00:00 0,9 -6,4 6 4 9 5 SE 20 0 0,0
17.01.2018 23:00:00 0,6 -6,4 4 2 8 4 SE 20 0 0,0
17.01.2018 22:00:00 0,5 -7,5 5 3 8 5 SE 20 0 0,0
17.01.2018 21:00:00 0,4 -5,7 6 4 9 5 SSE 20 0 0,0
17.01.2018 20:00:00 0,7 -7,8 1 1 9 5 SSE 20 0 0,0
17.01.2018 19:00:00 0,1 -3,9 6 4 9 5 SE 20 0 -
17.01.2018 18:00:00 - - - - - - - - - -
17.01.2018 17:00:00 1,2 -2,2 13 7 23 12 WNW 20 0 0,0
17.01.2018 16:00:00 1,5 -2,2 14 8 22 12 NW 20 50 0,0
17.01.2018 15:00:00 2,4 -2,0 16 9 27 15 NW 20 60 0,0
17.01.2018 14:00:00 - - - - - - - - - -
17.01.2018 13:00:00 1,5 -2,0 16 8 24 13 NW 20 59 -
17.01.2018 12:00:00 0,8 -1,4 17 9 34 19 NW 19 9 0,0
17.01.2018 11:00:00 0,1 -1,4 23 12 44 24 NW 15 0 0,0
17.01.2018 10:00:00 - - - - - - - - - -
17.01.2018 09:00:00 -0,2 -1,4 26 14 45 24 NW 16 0 0,0
17.01.2018 08:00:00 - - - - - - - - - -
17.01.2018 07:00:00 0,2 -1,0 26 14 56 31 NW 20 0 -
17.01.2018 06:00:00 0,8 -0,5 37 20 57 31 NW 20 0 0,0
17.01.2018 05:00:00 0,9 -0,7 28 15 46 25 NW 20 0 0,0
17.01.2018 04:00:00 1,3 -0,7 25 14 45 24 NNW 20 0 0,0
17.01.2018 03:00:00 2,3 1,1 27 14 51 28 NNW 20 0 0,0
17.01.2018 02:00:00 - - - - - - - - - -
17.01.2018 01:00:00 3,2 1,7 22 12 53 28 NW 20 0 -
17.01.2018 00:00:00 - - - - - - - - - -
16.01.2018 23:00:00 4,2 2,5 24 13 49 27 NW 20 0 0,0
16.01.2018 22:00:00 4,4 2,7 21 12 47 26 NW 20 0 0,0
16.01.2018 21:00:00 4,5 3,2 16 8 42 23 NNW 20 0 0,0
16.01.2018 20:00:00 - - - - - - - - - -
16.01.2018 19:00:00 4,6 3,2 19 10 40 22 NW 15 0 -
16.01.2018 18:00:00 5,2 2,5 14 8 31 17 NNW 20 0 0,0
16.01.2018 17:00:00 - - - - - - - - - -
16.01.2018 16:00:00 5,7 2,7 15 8 38 21 NW 20 12 0,0
16.01.2018 15:00:00 - - - - - - - - - -
16.01.2018 14:00:00 - - - - - - - - - -
16.01.2018 13:00:00 6,8 2,5 19 11 36 20 NW 20 60 -
16.01.2018 12:00:00 - - - - - - - - - -
16.01.2018 11:00:00 6,1 2,9 8 5 24 13 NW 20 59 0,0
16.01.2018 10:00:00 5,7 3,8 9 5 24 13 WNW 20 19 0,0
16.01.2018 09:00:00 - - - - - - - - - -
16.01.2018 08:00:00 4,4 3,2 5 3 31 17 WNW 20 0 0,0
16.01.2018 07:00:00 - - - - - - - - - -
16.01.2018 06:00:00 4,3 2,7 10 5 25 14 NNW 20 0 0,0
16.01.2018 05:00:00 - - - - - - - - - -
16.01.2018 04:00:00 4,2 2,7 12 6 34 19 NNW 20 0 0,0
16.01.2018 03:00:00 - - - - - - - - - -
16.01.2018 02:00:00 5,0 2,9 19 11 39 21 NW 20 0 0,0
16.01.2018 01:00:00 4,9 3,0 18 10 39 21 NW 20 0 -
16.01.2018 00:00:00 4,9 3,4 23 13 53 29 NW 20 0 0,0
15.01.2018 23:00:00 4,2 3,2 15 8 48 26 NW 20 0 0,0
15.01.2018 22:00:00 - - - - - - - - - -
15.01.2018 21:00:00 4,7 3,4 29 16 51 28 NW 20 0 0,0
15.01.2018 20:00:00 - - - - - - - - - -
15.01.2018 19:00:00 4,0 3,0 15 8 34 18 NW 20 0 -
15.01.2018 18:00:00 3,5 2,5 20 11 34 19 NNW 20 0 0,0
15.01.2018 17:00:00 3,2 1,9 12 6 27 15 NNW 20 0 0,0
15.01.2018 16:00:00 1,6 -2,0 9 5 17 9 SSE 20 0 0,0
15.01.2018 15:00:00 2,6 -1,2 6 3 26 14 E 20 0 0,0
15.01.2018 14:00:00 2,2 -3,3 13 7 26 14 NNW 20 1 0,0
15.01.2018 13:00:00 - - - - - - - - - -
15.01.2018 12:00:00 0,9 -5,1 5 3 12 6 SSE 20 0 0,0
15.01.2018 11:00:00 - - - - - - - - - -
15.01.2018 10:00:00 -3,4 -8,6 2 1 6 3 W 20 32 0,0
15.01.2018 09:00:00 -4,7 -9,0 4 2 10 6 SSE 20 0 0,0
15.01.2018 08:00:00 -4,1 -8,2 1 1 5 3 ESE 20 0 0,0
15.01.2018 07:00:00 -3,5 -7,8 1 1 11 6 S 20 0 -
15.01.2018 06:00:00 -3,9 -9,0 3 1 6 3 WNW 20 0 0,0
15.01.2018 05:00:00 -3,9 -7,1 3 2 11 6 S 20 0 0,0
15.01.2018 04:00:00 - - - - - - - - - -
15.01.2018 03:00:00 -5,3 -8,2 3 2 8 4 SSE 20 0 0,0
15.01.2018 02:00:00 -4,4 -5,7 5 3 13 7 NW 20 0 0,0
15.01.2018 01:00:00 - - - - - - - - - -
15.01.2018 00:00:00 -2,8 -3,6 15 8 24 13 NW 20 0 0,0
14.01.2018 23:00:00 -2,4 -3,6 18 10 24 13 NW 20 0 0,0
14.01.2018 22:00:00 -3,7 -5,1 10 5 19 10 NW 20 0 0,0
14.01.2018 21:00:00 -3,4 -4,8 7 4 15 8 NW 20 0 0,0
14.01.2018 20:00:00 -2,9 -4,2 6 3 18 10 NW 20 0 0,0
14.01.2018 19:00:00 -1,8 -2,5 12 6 33 18 NW 0,9 0 -
14.01.2018 18:00:00 - - - - - - - - - -
14.01.2018 17:00:00 -1,2 -2,2 13 7 29 15 WNW 3,2 0 0,2
14.01.2018 16:00:00 -1,1 -2,2 16 8 25 13 NW 1,4 4 0,0
14.01.2018 15:00:00 -1,1 -2,7 12 7 25 13 WNW 13 20 0,0
14.01.2018 14:00:00 -1,2 -2,2 12 6 25 13 NW 10 15 0,0
14.01.2018 13:00:00 - - - - - - - - - -
14.01.2018 12:00:00 -1,4 -2,5 15 8 27 15 WNW 3,4 17 0,5
14.01.2018 11:00:00 -2,3 -3,0 20 11 30 16 WNW 0,3 0 0,4
14.01.2018 10:00:00 -2,7 -3,3 25 13 37 20 NW 0,3 0 0,3
14.01.2018 09:00:00 -2,6 -3,3 18 10 24 13 NW 0,6 0 0,0
14.01.2018 08:00:00 -2,6 -3,3 15 8 23 13 NW 0,9 0 0,0
14.01.2018 07:00:00 -2,6 -3,3 9 5 17 9 NNW 0,4 0 -
14.01.2018 06:00:00 - - - - - - - - - -
14.01.2018 05:00:00 -2,8 -3,6 8 5 12 7 NNW 0,3 0 0,0
14.01.2018 04:00:00 -3,0 -3,9 5 3 11 6 NNW 4,4 0 0,0
14.01.2018 03:00:00 -3,3 -4,2 8 4 18 10 NW 20 0 0,1
14.01.2018 02:00:00 -2,9 -3,9 9 5 14 8 WNW 8 0 0,1
14.01.2018 01:00:00 -2,3 -3,0 8 4 10 6 NW 1,0 0 -
14.01.2018 00:00:00 - - - - - - - - - -
13.01.2018 23:00:00 -2,7 -3,6 2 1 8 4 ENE 3,3 0 0,0
13.01.2018 22:00:00 -3,4 -4,5 7 4 22 12 NW 9 0 0,0
13.01.2018 21:00:00 -2,0 -2,7 15 8 23 13 NW 0,2 0 0,6
13.01.2018 20:00:00 -1,6 -2,2 11 6 20 11 NW 1,0 0 0,1
13.01.2018 19:00:00 - - - - - - - - - -
13.01.2018 18:00:00 -1,3 -2,2 9 5 27 14 NW 9 0 1,4
13.01.2018 17:00:00 -0,5 -2,2 10 5 21 12 NW 13 0 0,0
13.01.2018 16:00:00 - - - - - - - - - -
13.01.2018 15:00:00 -0,2 -1,4 8 4 11 6 NNW 20 0 0,3
13.01.2018 14:00:00 -0,4 -2,0 6 3 9 5 SE 15 0 0,0
13.01.2018 13:00:00 - - - - - - - - - -
13.01.2018 12:00:00 -1,3 -2,2 7 4 12 7 SSE 8 0 0,2
13.01.2018 11:00:00 -1,5 -2,5 4 2 12 6 SSE 1,6 0 0,8
13.01.2018 10:00:00 - - - - - - - - - -
13.01.2018 09:00:00 -2,2 -3,0 9 5 13 7 SE 1,4 0 0,6
13.01.2018 08:00:00 -2,4 -3,0 8 5 16 9 SE 1,0 0 0,8
13.01.2018 07:00:00 -2,4 -3,0 13 7 18 10 SSE 1,4 0 -
13.01.2018 06:00:00 - - - - - - - - - -
13.01.2018 05:00:00 -2,7 -3,6 14 8 22 12 SSE 1,0 0 1,4
13.01.2018 04:00:00 - - - - - - - - - -
13.01.2018 03:00:00 -2,6 -4,2 14 7 23 12 SE 17 0 0,0
13.01.2018 02:00:00 - - - - - - - - - -
13.01.2018 01:00:00 -2,4 -4,2 11 6 17 9 SSE 20 0 -
13.01.2018 00:00:00 -3,0 -4,5 13 7 19 11 SE 20 0 0,0
12.01.2018 23:00:00 -2,4 -4,2 9 5 16 9 SE 20 0 0,0
12.01.2018 22:00:00 -1,8 -3,9 13 7 18 10 SE 20 0 0,0
12.01.2018 21:00:00 -1,6 -3,6 10 5 19 10 ESE 20 0 0,0
12.01.2018 20:00:00 -1,7 -3,6 12 6 18 10 ESE 20 0 0,0
12.01.2018 19:00:00 -1,7 -3,9 6 4 17 9 SE 20 0 -
12.01.2018 18:00:00 - - - - - - - - - -
12.01.2018 17:00:00 -0,9 -4,8 12 6 17 9 SE 20 0 0,0
12.01.2018 16:00:00 - - - - - - - - - -
12.01.2018 15:00:00 -0,4 -2,7 13 7 17 9 SE 20 0 0,0
12.01.2018 14:00:00 -0,4 -2,7 11 6 17 9 SE 20 12 0,0
12.01.2018 13:00:00 -1,3 -3,3 13 7 16 9 SE 20 23 -
12.01.2018 12:00:00 -1,8 -3,3 13 7 16 9 SE 20 22 0,0
12.01.2018 11:00:00 -2,8 -4,2 12 7 16 9 SE 20 28 0,0
12.01.2018 10:00:00 -2,8 -3,9 10 5 14 8 SE 8 5 0,0
12.01.2018 09:00:00 -3,8 -4,8 13 7 17 9 SE 2,2 0 0,0
12.01.2018 08:00:00 -5,4 -6,4 15 8 18 10 SE 20 0 0,0
12.01.2018 07:00:00 -4,8 -5,7 11 6 18 10 SE 19 0 -

tt = temperature
td = dewpoint
ff = wind speed
fx = gusts
dd = wind direction
vv = visibility
sd = sunshine duration
rr = precipitation

Next stations